sensor_id;sensor_type;location;lat;lon;timestamp;pressure;altitude;pressure_sealevel;temperature;humidity
44734;BME280;30462;52.446;-1.930;2023-04-22T00:00:18;99456.45703;;;;
44734;BME280;30462;52.446;-1.930;2023-04-22T00:01:18;99456.34375;;;;
44734;BME280;30462;52.446;-1.930;2023-04-22T00:02:18;99453.58594;;;;
44734;BME280;30462;52.446;-1.930;2023-04-22T00:03:18;99451.22656;;;;
44734;BME280;30462;52.446;-1.930;2023-04-22T00:04:18;99452.89063;;;;
44734;BME280;30462;52.446;-1.930;2023-04-22T00:05:18;99453.23438;;;;
44734;BME280;30462;52.446;-1.930;2023-04-22T00:06:18;99451.39063;;;;
44734;BME280;30462;52.446;-1.930;2023-04-22T00:07:18;99447.48828;;;;
44734;BME280;30462;52.446;-1.930;2023-04-22T00:08:17;99450.06641;;;;
44734;BME280;30462;52.446;-1.930;2023-04-22T00:09:17;99451.36719;;;;
44734;BME280;30462;52.446;-1.930;2023-04-22T00:10:18;99448.84375;;;;
44734;BME280;30462;52.446;-1.930;2023-04-22T00:11:18;99452.55469;;;;
44734;BME280;30462;52.446;-1.930;2023-04-22T00:12:18;99451.92188;;;;
44734;BME280;30462;52.446;-1.930;2023-04-22T00:13:18;99450.30078;;;;
44734;BME280;30462;52.446;-1.930;2023-04-22T00:14:18;99453.00781;;;;
44734;BME280;30462;52.446;-1.930;2023-04-22T00:15:18;99451.37891;;;;
44734;BME280;30462;52.446;-1.930;2023-04-22T00:16:18;99448.28516;;;;
44734;BME280;30462;52.446;-1.930;2023-04-22T00:17:18;99453.16016;;;;
44734;BME280;30462;52.446;-1.930;2023-04-22T00:18:18;99445.94141;;;;
44734;BME280;30462;52.446;-1.930;2023-04-22T00:19:18;99443.67578;;;;
44734;BME280;30462;52.446;-1.930;2023-04-22T00:20:18;99439.74219;;;;
44734;BME280;30462;52.446;-1.930;2023-04-22T00:21:17;99436.37109;;;;
44734;BME280;30462;52.446;-1.930;2023-04-22T00:22:18;99437.92188;;;;
44734;BME280;30462;52.446;-1.930;2023-04-22T00:23:18;99436.33594;;;;
44734;BME280;30462;52.446;-1.930;2023-04-22T00:24:18;99434.95313;;;;
44734;BME280;30462;52.446;-1.930;2023-04-22T00:25:18;99431.69531;;;;
44734;BME280;30462;52.446;-1.930;2023-04-22T00:26:18;99433.60547;;;;
44734;BME280;30462;52.446;-1.930;2023-04-22T00:27:18;99430.21484;;;;
44734;BME280;30462;52.446;-1.930;2023-04-22T00:28:18;99428.73828;;;;
44734;BME280;30462;52.446;-1.930;2023-04-22T00:29:18;99427.25391;;;;
44734;BME280;30462;52.446;-1.930;2023-04-22T00:30:18;99424.94922;;;;
44734;BME280;30462;52.446;-1.930;2023-04-22T00:31:18;99423.95703;;;;
44734;BME280;30462;52.446;-1.930;2023-04-22T00:32:18;99423.53125;;;;
44734;BME280;30462;52.446;-1.930;2023-04-22T00:33:18;99419.97266;;;;
44734;BME280;30462;52.446;-1.930;2023-04-22T00:34:18;99417.95703;;;;
44734;BME280;30462;52.446;-1.930;2023-04-22T00:35:18;99415.97266;;;;
44734;BME280;30462;52.446;-1.930;2023-04-22T00:36:18;99412.46875;;;;
44734;BME280;30462;52.446;-1.930;2023-04-22T00:37:18;99415.61719;;;;
44734;BME280;30462;52.446;-1.930;2023-04-22T00:38:18;99413.81641;;;;
44734;BME280;30462;52.446;-1.930;2023-04-22T00:39:18;99414.67578;;;;
44734;BME280;30462;52.446;-1.930;2023-04-22T00:40:18;99411.73047;;;;
44734;BME280;30462;52.446;-1.930;2023-04-22T00:41:18;99411.56641;;;;
44734;BME280;30462;52.446;-1.930;2023-04-22T00:42:17;99408.02344;;;;
44734;BME280;30462;52.446;-1.930;2023-04-22T00:43:18;99410.19141;;;;
44734;BME280;30462;52.446;-1.930;2023-04-22T00:44:18;99407.75;;;;
44734;BME280;30462;52.446;-1.930;2023-04-22T00:45:18;99402.35156;;;;
44734;BME280;30462;52.446;-1.930;2023-04-22T00:46:18;99402.51172;;;;
44734;BME280;30462;52.446;-1.930;2023-04-22T00:47:17;99398.35156;;;;
44734;BME280;30462;52.446;-1.930;2023-04-22T00:48:18;99397.46875;;;;
44734;BME280;30462;52.446;-1.930;2023-04-22T00:49:18;99393.03516;;;;
44734;BME280;30462;52.446;-1.930;2023-04-22T00:50:18;99390.52734;;;;
44734;BME280;30462;52.446;-1.930;2023-04-22T00:51:18;99387.89063;;;;
44734;BME280;30462;52.446;-1.930;2023-04-22T00:52:18;99391.875;;;;
44734;BME280;30462;52.446;-1.930;2023-04-22T00:53:18;99388.83984;;;;
44734;BME280;30462;52.446;-1.930;2023-04-22T00:54:18;99385.94922;;;;
44734;BME280;30462;52.446;-1.930;2023-04-22T00:55:18;99384.12891;;;;
44734;BME280;30462;52.446;-1.930;2023-04-22T00:56:18;99388.03516;;;;
44734;BME280;30462;52.446;-1.930;2023-04-22T00:57:18;99384.11328;;;;
44734;BME280;30462;52.446;-1.930;2023-04-22T00:58:18;99382.01953;;;;
44734;BME280;30462;52.446;-1.930;2023-04-22T00:59:18;99383.875;;;;
44734;BME280;30462;52.446;-1.930;2023-04-22T01:00:18;99381.18359;;;;
44734;BME280;30462;52.446;-1.930;2023-04-22T01:01:18;99378.56641;;;;
44734;BME280;30462;52.446;-1.930;2023-04-22T01:02:18;99378.62109;;;;
44734;BME280;30462;52.446;-1.930;2023-04-22T01:03:19;99380.03906;;;;
44734;BME280;30462;52.446;-1.930;2023-04-22T01:04:18;99377.29297;;;;
44734;BME280;30462;52.446;-1.930;2023-04-22T01:05:18;99377.125;;;;
44734;BME280;30462;52.446;-1.930;2023-04-22T01:06:18;99374.09375;;;;
44734;BME280;30462;52.446;-1.930;2023-04-22T01:07:18;99373.87891;;;;
44734;BME280;30462;52.446;-1.930;2023-04-22T01:08:17;99373.10938;;;;
44734;BME280;30462;52.446;-1.930;2023-04-22T01:09:18;99370.00391;;;;
44734;BME280;30462;52.446;-1.930;2023-04-22T01:10:18;99369.82031;;;;
44734;BME280;30462;52.446;-1.930;2023-04-22T01:11:18;99372.05469;;;;
44734;BME280;30462;52.446;-1.930;2023-04-22T01:12:18;99363.21875;;;;
44734;BME280;30462;52.446;-1.930;2023-04-22T01:13:18;99364.5625;;;;
44734;BME280;30462;52.446;-1.930;2023-04-22T01:14:18;99362.74219;;;;
44734;BME280;30462;52.446;-1.930;2023-04-22T01:15:18;99362.90234;;;;
44734;BME280;30462;52.446;-1.930;2023-04-22T01:16:18;99361.53906;;;;
44734;BME280;30462;52.446;-1.930;2023-04-22T01:17:18;99362.33594;;;;
44734;BME280;30462;52.446;-1.930;2023-04-22T01:18:17;99359.28125;;;;
44734;BME280;30462;52.446;-1.930;2023-04-22T01:19:18;99357.97266;;;;
44734;BME280;30462;52.446;-1.930;2023-04-22T01:20:18;99358.64844;;;;
44734;BME280;30462;52.446;-1.930;2023-04-22T01:21:18;99354.12109;;;;
44734;BME280;30462;52.446;-1.930;2023-04-22T01:22:18;99352.86719;;;;
44734;BME280;30462;52.446;-1.930;2023-04-22T01:23:18;99353.6875;;;;
44734;BME280;30462;52.446;-1.930;2023-04-22T01:24:18;99350.54297;;;;
44734;BME280;30462;52.446;-1.930;2023-04-22T01:25:18;99351.6875;;;;
44734;BME280;30462;52.446;-1.930;2023-04-22T01:26:18;99347.30469;;;;
44734;BME280;30462;52.446;-1.930;2023-04-22T01:27:18;99345.25391;;;;
44734;BME280;30462;52.446;-1.930;2023-04-22T01:28:18;99347.26953;;;;
44734;BME280;30462;52.446;-1.930;2023-04-22T01:29:18;99343.83203;;;;
44734;BME280;30462;52.446;-1.930;2023-04-22T01:30:17;99343.69141;;;;
44734;BME280;30462;52.446;-1.930;2023-04-22T01:31:18;99339.96484;;;;
44734;BME280;30462;52.446;-1.930;2023-04-22T01:32:18;99339.19922;;;;
44734;BME280;30462;52.446;-1.930;2023-04-22T01:33:18;99337.47656;;;;
44734;BME280;30462;52.446;-1.930;2023-04-22T01:34:18;99332.51172;;;;
44734;BME280;30462;52.446;-1.930;2023-04-22T01:35:18;99334.14453;;;;
44734;BME280;30462;52.446;-1.930;2023-04-22T01:36:18;99331.03906;;;;
44734;BME280;30462;52.446;-1.930;2023-04-22T01:37:18;99329.12891;;;;
44734;BME280;30462;52.446;-1.930;2023-04-22T01:38:18;99328.61719;;;;
44734;BME280;30462;52.446;-1.930;2023-04-22T01:39:18;99325.17969;;;;
44734;BME280;30462;52.446;-1.930;2023-04-22T01:40:18;99326.92578;;;;
44734;BME280;30462;52.446;-1.930;2023-04-22T01:41:18;99323.81641;;;;
44734;BME280;30462;52.446;-1.930;2023-04-22T01:42:18;99319.83594;;;;
44734;BME280;30462;52.446;-1.930;2023-04-22T01:43:18;99321.00391;;;;
44734;BME280;30462;52.446;-1.930;2023-04-22T01:44:18;99320.40234;;;;
44734;BME280;30462;52.446;-1.930;2023-04-22T01:45:18;99314.01953;;;;
44734;BME280;30462;52.446;-1.930;2023-04-22T01:46:18;99312.44141;;;;
44734;BME280;30462;52.446;-1.930;2023-04-22T01:47:18;99309.98438;;;;
44734;BME280;30462;52.446;-1.930;2023-04-22T01:48:18;99309.44141;;;;
44734;BME280;30462;52.446;-1.930;2023-04-22T01:49:18;99305.34766;;;;
44734;BME280;30462;52.446;-1.930;2023-04-22T01:50:18;99305.26563;;;;
44734;BME280;30462;52.446;-1.930;2023-04-22T01:51:18;99306.68359;;;;
44734;BME280;30462;52.446;-1.930;2023-04-22T01:52:17;99305.75391;;;;
44734;BME280;30462;52.446;-1.930;2023-04-22T01:53:18;99306.19141;;;;
44734;BME280;30462;52.446;-1.930;2023-04-22T01:54:17;99305.10156;;;;
44734;BME280;30462;52.446;-1.930;2023-04-22T01:55:18;99303.8125;;;;
44734;BME280;30462;52.446;-1.930;2023-04-22T01:56:18;99305.12109;;;;
44734;BME280;30462;52.446;-1.930;2023-04-22T01:57:18;99304.19531;;;;
44734;BME280;30462;52.446;-1.930;2023-04-22T01:58:18;99309.54297;;;;
44734;BME280;30462;52.446;-1.930;2023-04-22T01:59:18;99308.85547;;;;
44734;BME280;30462;52.446;-1.930;2023-04-22T02:00:18;99307.89453;;;;
44734;BME280;30462;52.446;-1.930;2023-04-22T02:01:18;99310.51172;;;;
44734;BME280;30462;52.446;-1.930;2023-04-22T02:02:18;99309.33594;;;;
44734;BME280;30462;52.446;-1.930;2023-04-22T02:03:17;99309.9375;;;;
44734;BME280;30462;52.446;-1.930;2023-04-22T02:04:18;99308.13281;;;;
44734;BME280;30462;52.446;-1.930;2023-04-22T02:05:18;99307.64453;;;;
44734;BME280;30462;52.446;-1.930;2023-04-22T02:06:18;99306.57422;;;;
44734;BME280;30462;52.446;-1.930;2023-04-22T02:07:18;99305.46484;;;;
44734;BME280;30462;52.446;-1.930;2023-04-22T02:08:18;99309.33594;;;;
44734;BME280;30462;52.446;-1.930;2023-04-22T02:09:18;99309.62891;;;;
44734;BME280;30462;52.446;-1.930;2023-04-22T02:10:18;99309.13672;;;;
44734;BME280;30462;52.446;-1.930;2023-04-22T02:11:19;99308.46875;;;;
44734;BME280;30462;52.446;-1.930;2023-04-22T02:12:18;99305.92969;;;;
44734;BME280;30462;52.446;-1.930;2023-04-22T02:13:18;99305.58203;;;;
44734;BME280;30462;52.446;-1.930;2023-04-22T02:14:18;99307.65625;;;;
44734;BME280;30462;52.446;-1.930;2023-04-22T02:15:18;99307.08984;;;;
44734;BME280;30462;52.446;-1.930;2023-04-22T02:16:18;99305.12891;;;;
44734;BME280;30462;52.446;-1.930;2023-04-22T02:17:18;99304.07422;;;;
44734;BME280;30462;52.446;-1.930;2023-04-22T02:18:18;99305.56641;;;;
44734;BME280;30462;52.446;-1.930;2023-04-22T02:19:18;99303.89453;;;;
44734;BME280;30462;52.446;-1.930;2023-04-22T02:20:18;99302.00781;;;;
44734;BME280;30462;52.446;-1.930;2023-04-22T02:21:18;99303.11328;;;;
44734;BME280;30462;52.446;-1.930;2023-04-22T02:22:18;99299.42578;;;;
44734;BME280;30462;52.446;-1.930;2023-04-22T02:23:18;99296.55469;;;;
44734;BME280;30462;52.446;-1.930;2023-04-22T02:24:18;99297.53516;;;;
44734;BME280;30462;52.446;-1.930;2023-04-22T02:25:18;99299.625;;;;
44734;BME280;30462;52.446;-1.930;2023-04-22T02:26:18;99298.29297;;;;
44734;BME280;30462;52.446;-1.930;2023-04-22T02:27:18;99297.42188;;;;
44734;BME280;30462;52.446;-1.930;2023-04-22T02:28:18;99297.05469;;;;
44734;BME280;30462;52.446;-1.930;2023-04-22T02:29:18;99297.55859;;;;
44734;BME280;30462;52.446;-1.930;2023-04-22T02:30:18;99293.05469;;;;
44734;BME280;30462;52.446;-1.930;2023-04-22T02:31:18;99292.96094;;;;
44734;BME280;30462;52.446;-1.930;2023-04-22T02:32:18;99295.57422;;;;
44734;BME280;30462;52.446;-1.930;2023-04-22T02:33:18;99294.86719;;;;
44734;BME280;30462;52.446;-1.930;2023-04-22T02:34:18;99293.32422;;;;
44734;BME280;30462;52.446;-1.930;2023-04-22T02:35:18;99291.96094;;;;
44734;BME280;30462;52.446;-1.930;2023-04-22T02:36:18;99290.03906;;;;
44734;BME280;30462;52.446;-1.930;2023-04-22T02:37:18;99286.99219;;;;
44734;BME280;30462;52.446;-1.930;2023-04-22T02:38:18;99287.90234;;;;
44734;BME280;30462;52.446;-1.930;2023-04-22T02:39:18;99286.48438;;;;
44734;BME280;30462;52.446;-1.930;2023-04-22T02:40:18;99284.28906;;;;
44734;BME280;30462;52.446;-1.930;2023-04-22T02:41:18;99281.01953;;;;
44734;BME280;30462;52.446;-1.930;2023-04-22T02:42:18;99279.51172;;;;
44734;BME280;30462;52.446;-1.930;2023-04-22T02:43:18;99277.11328;;;;
44734;BME280;30462;52.446;-1.930;2023-04-22T02:44:18;99278.49609;;;;
44734;BME280;30462;52.446;-1.930;2023-04-22T02:45:18;99279.16406;;;;
44734;BME280;30462;52.446;-1.930;2023-04-22T02:46:18;99272.07813;;;;
44734;BME280;30462;52.446;-1.930;2023-04-22T02:47:18;99271.5;;;;
44734;BME280;30462;52.446;-1.930;2023-04-22T02:48:18;99272.53125;;;;
44734;BME280;30462;52.446;-1.930;2023-04-22T02:49:18;99273.14453;;;;
44734;BME280;30462;52.446;-1.930;2023-04-22T02:50:18;99272.44922;;;;
44734;BME280;30462;52.446;-1.930;2023-04-22T02:51:18;99272.06641;;;;
44734;BME280;30462;52.446;-1.930;2023-04-22T02:52:18;99265.82031;;;;
44734;BME280;30462;52.446;-1.930;2023-04-22T02:53:18;99263.25781;;;;
44734;BME280;30462;52.446;-1.930;2023-04-22T02:54:18;99263.49219;;;;
44734;BME280;30462;52.446;-1.930;2023-04-22T02:55:17;99262.03516;;;;
44734;BME280;30462;52.446;-1.930;2023-04-22T02:56:19;99262.14063;;;;
44734;BME280;30462;52.446;-1.930;2023-04-22T02:57:18;99262.375;;;;
44734;BME280;30462;52.446;-1.930;2023-04-22T02:58:18;99261.95313;;;;
44734;BME280;30462;52.446;-1.930;2023-04-22T02:59:18;99259.28516;;;;
44734;BME280;30462;52.446;-1.930;2023-04-22T03:00:18;99255.04688;;;;
44734;BME280;30462;52.446;-1.930;2023-04-22T03:01:18;99255.57813;;;;
44734;BME280;30462;52.446;-1.930;2023-04-22T03:02:18;99250.47656;;;;
44734;BME280;30462;52.446;-1.930;2023-04-22T03:03:18;99250.42188;;;;
44734;BME280;30462;52.446;-1.930;2023-04-22T03:04:18;99248.07422;;;;
44734;BME280;30462;52.446;-1.930;2023-04-22T03:05:18;99247.38672;;;;
44734;BME280;30462;52.446;-1.930;2023-04-22T03:06:18;99246.18359;;;;
44734;BME280;30462;52.446;-1.930;2023-04-22T03:07:18;99245.87109;;;;
44734;BME280;30462;52.446;-1.930;2023-04-22T03:08:17;99249.51563;;;;
44734;BME280;30462;52.446;-1.930;2023-04-22T03:09:17;99248.12891;;;;
44734;BME280;30462;52.446;-1.930;2023-04-22T03:10:18;99252.93359;;;;
44734;BME280;30462;52.446;-1.930;2023-04-22T03:11:18;99246.25391;;;;
44734;BME280;30462;52.446;-1.930;2023-04-22T03:12:18;99245.4375;;;;
44734;BME280;30462;52.446;-1.930;2023-04-22T03:13:18;99246.73828;;;;
44734;BME280;30462;52.446;-1.930;2023-04-22T03:14:18;99244.89063;;;;
44734;BME280;30462;52.446;-1.930;2023-04-22T03:15:18;99248.33203;;;;
44734;BME280;30462;52.446;-1.930;2023-04-22T03:16:18;99247.72656;;;;
44734;BME280;30462;52.446;-1.930;2023-04-22T03:17:18;99247.94141;;;;
44734;BME280;30462;52.446;-1.930;2023-04-22T03:18:18;99246.80078;;;;
44734;BME280;30462;52.446;-1.930;2023-04-22T03:19:18;99247.61328;;;;
44734;BME280;30462;52.446;-1.930;2023-04-22T03:20:18;99247.62109;;;;
44734;BME280;30462;52.446;-1.930;2023-04-22T03:21:18;99248.49219;;;;
44734;BME280;30462;52.446;-1.930;2023-04-22T03:22:18;99246.76563;;;;
44734;BME280;30462;52.446;-1.930;2023-04-22T03:23:18;99246.33203;;;;
44734;BME280;30462;52.446;-1.930;2023-04-22T03:24:18;99244.73828;;;;
44734;BME280;30462;52.446;-1.930;2023-04-22T03:25:18;99240.53125;;;;
44734;BME280;30462;52.446;-1.930;2023-04-22T03:26:18;99237.80078;;;;
44734;BME280;30462;52.446;-1.930;2023-04-22T03:27:18;99233.26563;;;;
44734;BME280;30462;52.446;-1.930;2023-04-22T03:28:18;99231.94531;;;;
44734;BME280;30462;52.446;-1.930;2023-04-22T03:29:18;99231.53125;;;;
44734;BME280;30462;52.446;-1.930;2023-04-22T03:30:18;99233.70703;;;;
44734;BME280;30462;52.446;-1.930;2023-04-22T03:31:18;99231.67188;;;;
44734;BME280;30462;52.446;-1.930;2023-04-22T03:32:18;99231.12891;;;;
44734;BME280;30462;52.446;-1.930;2023-04-22T03:33:17;99231.94531;;;;
44734;BME280;30462;52.446;-1.930;2023-04-22T03:34:18;99231.02734;;;;
44734;BME280;30462;52.446;-1.930;2023-04-22T03:35:18;99229.375;;;;
44734;BME280;30462;52.446;-1.930;2023-04-22T03:36:18;99229.75391;;;;
44734;BME280;30462;52.446;-1.930;2023-04-22T03:37:18;99228.28516;;;;
44734;BME280;30462;52.446;-1.930;2023-04-22T03:38:18;99225.125;;;;
44734;BME280;30462;52.446;-1.930;2023-04-22T03:39:18;99226.28906;;;;
44734;BME280;30462;52.446;-1.930;2023-04-22T03:40:18;99225.52344;;;;
44734;BME280;30462;52.446;-1.930;2023-04-22T03:41:18;99225.125;;;;
44734;BME280;30462;52.446;-1.930;2023-04-22T03:42:18;99224.03906;;;;
44734;BME280;30462;52.446;-1.930;2023-04-22T03:43:18;99223.16797;;;;
44734;BME280;30462;52.446;-1.930;2023-04-22T03:44:18;99228.23438;;;;
44734;BME280;30462;52.446;-1.930;2023-04-22T03:45:18;99227.95703;;;;
44734;BME280;30462;52.446;-1.930;2023-04-22T03:46:19;99227.67188;;;;
44734;BME280;30462;52.446;-1.930;2023-04-22T03:47:18;99225.14844;;;;
44734;BME280;30462;52.446;-1.930;2023-04-22T03:48:18;99226.83984;;;;
44734;BME280;30462;52.446;-1.930;2023-04-22T03:49:18;99224.5;;;;
44734;BME280;30462;52.446;-1.930;2023-04-22T03:50:17;99221.25;;;;
44734;BME280;30462;52.446;-1.930;2023-04-22T03:51:18;99223.64844;;;;
44734;BME280;30462;52.446;-1.930;2023-04-22T03:52:18;99219.07422;;;;
44734;BME280;30462;52.446;-1.930;2023-04-22T03:53:18;99214.76563;;;;
44734;BME280;30462;52.446;-1.930;2023-04-22T03:54:18;99218.01563;;;;
44734;BME280;30462;52.446;-1.930;2023-04-22T03:55:18;99211.97266;;;;
44734;BME280;30462;52.446;-1.930;2023-04-22T03:56:18;99212.57422;;;;
44734;BME280;30462;52.446;-1.930;2023-04-22T03:57:18;99209.03516;;;;
44734;BME280;30462;52.446;-1.930;2023-04-22T03:58:18;99208.70703;;;;
44734;BME280;30462;52.446;-1.930;2023-04-22T03:59:18;99205.70703;;;;
44734;BME280;30462;52.446;-1.930;2023-04-22T04:00:17;99206.6875;;;;
44734;BME280;30462;52.446;-1.930;2023-04-22T04:01:17;99205.52734;;;;
44734;BME280;30462;52.446;-1.930;2023-04-22T04:02:18;99199.77344;;;;
44734;BME280;30462;52.446;-1.930;2023-04-22T04:03:18;99196.78906;;;;
44734;BME280;30462;52.446;-1.930;2023-04-22T04:04:18;99198.24219;;;;
44734;BME280;30462;52.446;-1.930;2023-04-22T04:05:18;99197.55078;;;;
44734;BME280;30462;52.446;-1.930;2023-04-22T04:06:18;99193.51953;;;;
44734;BME280;30462;52.446;-1.930;2023-04-22T04:07:18;99194.9375;;;;
44734;BME280;30462;52.446;-1.930;2023-04-22T04:08:18;99195.16797;;;;
44734;BME280;30462;52.446;-1.930;2023-04-22T04:09:18;99193.85938;;;;
44734;BME280;30462;52.446;-1.930;2023-04-22T04:10:18;99193.16797;;;;
44734;BME280;30462;52.446;-1.930;2023-04-22T04:11:18;99185.67188;;;;
44734;BME280;30462;52.446;-1.930;2023-04-22T04:12:18;99187.97266;;;;
44734;BME280;30462;52.446;-1.930;2023-04-22T04:13:17;99190.92969;;;;
44734;BME280;30462;52.446;-1.930;2023-04-22T04:14:18;99187.5;;;;
44734;BME280;30462;52.446;-1.930;2023-04-22T04:15:18;99189.02734;;;;
44734;BME280;30462;52.446;-1.930;2023-04-22T04:16:17;99187.41016;;;;
44734;BME280;30462;52.446;-1.930;2023-04-22T04:17:17;99188.29688;;;;
44734;BME280;30462;52.446;-1.930;2023-04-22T04:18:17;99189.96484;;;;
44734;BME280;30462;52.446;-1.930;2023-04-22T04:19:18;99189.40625;;;;
44734;BME280;30462;52.446;-1.930;2023-04-22T04:20:18;99191.51172;;;;
44734;BME280;30462;52.446;-1.930;2023-04-22T04:21:18;99195.79688;;;;
44734;BME280;30462;52.446;-1.930;2023-04-22T04:22:18;99195.28906;;;;
44734;BME280;30462;52.446;-1.930;2023-04-22T04:23:18;99193.66016;;;;
44734;BME280;30462;52.446;-1.930;2023-04-22T04:24:18;99191.24609;;;;
44734;BME280;30462;52.446;-1.930;2023-04-22T04:25:18;99188.63281;;;;
44734;BME280;30462;52.446;-1.930;2023-04-22T04:26:17;99192.53125;;;;
44734;BME280;30462;52.446;-1.930;2023-04-22T04:27:17;99189.76953;;;;
44734;BME280;30462;52.446;-1.930;2023-04-22T04:28:18;99188.77344;;;;
44734;BME280;30462;52.446;-1.930;2023-04-22T04:29:18;99184.96484;;;;
44734;BME280;30462;52.446;-1.930;2023-04-22T04:30:18;99185.21875;;;;
44734;BME280;30462;52.446;-1.930;2023-04-22T04:31:17;99183.05859;;;;
44734;BME280;30462;52.446;-1.930;2023-04-22T04:32:17;99183.36719;;;;
44734;BME280;30462;52.446;-1.930;2023-04-22T04:33:18;99184.01953;;;;
44734;BME280;30462;52.446;-1.930;2023-04-22T04:34:18;99182.98438;;;;
44734;BME280;30462;52.446;-1.930;2023-04-22T04:35:18;99182.87891;;;;
44734;BME280;30462;52.446;-1.930;2023-04-22T04:36:18;99183.96484;;;;
44734;BME280;30462;52.446;-1.930;2023-04-22T04:37:18;99182.17188;;;;
44734;BME280;30462;52.446;-1.930;2023-04-22T04:38:18;99183.16797;;;;
44734;BME280;30462;52.446;-1.930;2023-04-22T04:39:17;99181.75391;;;;
44734;BME280;30462;52.446;-1.930;2023-04-22T04:40:18;99181.77344;;;;
44734;BME280;30462;52.446;-1.930;2023-04-22T04:41:18;99180.35938;;;;
44734;BME280;30462;52.446;-1.930;2023-04-22T04:42:18;99178.01953;;;;
44734;BME280;30462;52.446;-1.930;2023-04-22T04:43:18;99176.62109;;;;
44734;BME280;30462;52.446;-1.930;2023-04-22T04:44:18;99174.69531;;;;
44734;BME280;30462;52.446;-1.930;2023-04-22T04:45:18;99177.25781;;;;
44734;BME280;30462;52.446;-1.930;2023-04-22T04:46:18;99178.4375;;;;
44734;BME280;30462;52.446;-1.930;2023-04-22T04:47:18;99175.29297;;;;
44734;BME280;30462;52.446;-1.930;2023-04-22T04:48:18;99175.89844;;;;
44734;BME280;30462;52.446;-1.930;2023-04-22T04:49:18;99177.07813;;;;
44734;BME280;30462;52.446;-1.930;2023-04-22T04:50:18;99176.64453;;;;
44734;BME280;30462;52.446;-1.930;2023-04-22T04:51:18;99174.84766;;;;
44734;BME280;30462;52.446;-1.930;2023-04-22T04:52:18;99175.87891;;;;
44734;BME280;30462;52.446;-1.930;2023-04-22T04:53:18;99176.56641;;;;
44734;BME280;30462;52.446;-1.930;2023-04-22T04:54:18;99180.74609;;;;
44734;BME280;30462;52.446;-1.930;2023-04-22T04:55:18;99177.32813;;;;
44734;BME280;30462;52.446;-1.930;2023-04-22T04:56:18;99178.30859;;;;
44734;BME280;30462;52.446;-1.930;2023-04-22T04:57:18;99181.21484;;;;
44734;BME280;30462;52.446;-1.930;2023-04-22T04:58:18;99179;;;;
44734;BME280;30462;52.446;-1.930;2023-04-22T04:59:17;99174.75;;;;
44734;BME280;30462;52.446;-1.930;2023-04-22T05:00:18;99177.65625;;;;
44734;BME280;30462;52.446;-1.930;2023-04-22T05:01:18;99174.75;;;;
44734;BME280;30462;52.446;-1.930;2023-04-22T05:02:18;99176.4375;;;;
44734;BME280;30462;52.446;-1.930;2023-04-22T05:03:18;99175.83984;;;;
44734;BME280;30462;52.446;-1.930;2023-04-22T05:04:18;99175.98828;;;;
44734;BME280;30462;52.446;-1.930;2023-04-22T05:05:18;99175.16797;;;;
44734;BME280;30462;52.446;-1.930;2023-04-22T05:06:18;99173.375;;;;
44734;BME280;30462;52.446;-1.930;2023-04-22T05:07:18;99173.08594;;;;
44734;BME280;30462;52.446;-1.930;2023-04-22T05:08:18;99171.17578;;;;
44734;BME280;30462;52.446;-1.930;2023-04-22T05:09:18;99169.12891;;;;
44734;BME280;30462;52.446;-1.930;2023-04-22T05:10:18;99166.96484;;;;
44734;BME280;30462;52.446;-1.930;2023-04-22T05:11:17;99162.55469;;;;
44734;BME280;30462;52.446;-1.930;2023-04-22T05:12:18;99162.60938;;;;
44734;BME280;30462;52.446;-1.930;2023-04-22T05:13:18;99160.22656;;;;
44734;BME280;30462;52.446;-1.930;2023-04-22T05:14:18;99159.03125;;;;
44734;BME280;30462;52.446;-1.930;2023-04-22T05:15:18;99159.63281;;;;
44734;BME280;30462;52.446;-1.930;2023-04-22T05:16:18;99157.34375;;;;
44734;BME280;30462;52.446;-1.930;2023-04-22T05:17:18;99157.36328;;;;
44734;BME280;30462;52.446;-1.930;2023-04-22T05:18:18;99157.94141;;;;
44734;BME280;30462;52.446;-1.930;2023-04-22T05:19:18;99154.80078;;;;
44734;BME280;30462;52.446;-1.930;2023-04-22T05:20:17;99156.59766;;;;
44734;BME280;30462;52.446;-1.930;2023-04-22T05:21:18;99153.82031;;;;
44734;BME280;30462;52.446;-1.930;2023-04-22T05:22:18;99154.36719;;;;
44734;BME280;30462;52.446;-1.930;2023-04-22T05:23:18;99154.91016;;;;
44734;BME280;30462;52.446;-1.930;2023-04-22T05:24:18;99155.03516;;;;
44734;BME280;30462;52.446;-1.930;2023-04-22T05:25:18;99154.64844;;;;
44734;BME280;30462;52.446;-1.930;2023-04-22T05:26:18;99156.70703;;;;
44734;BME280;30462;52.446;-1.930;2023-04-22T05:27:18;99157.53125;;;;
44734;BME280;30462;52.446;-1.930;2023-04-22T05:28:18;99156.54297;;;;
44734;BME280;30462;52.446;-1.930;2023-04-22T05:29:18;99156.875;;;;
44734;BME280;30462;52.446;-1.930;2023-04-22T05:30:18;99159.69922;;;;
44734;BME280;30462;52.446;-1.930;2023-04-22T05:31:18;99161.39063;;;;
44734;BME280;30462;52.446;-1.930;2023-04-22T05:32:17;99159.27734;;;;
44734;BME280;30462;52.446;-1.930;2023-04-22T05:33:18;99159.10156;;;;
44734;BME280;30462;52.446;-1.930;2023-04-22T05:34:18;99157.25781;;;;
44734;BME280;30462;52.446;-1.930;2023-04-22T05:35:18;99155.39063;;;;
44734;BME280;30462;52.446;-1.930;2023-04-22T05:36:18;99153.43359;;;;
44734;BME280;30462;52.446;-1.930;2023-04-22T05:37:18;99153.52344;;;;
44734;BME280;30462;52.446;-1.930;2023-04-22T05:38:18;99155.48828;;;;
44734;BME280;30462;52.446;-1.930;2023-04-22T05:39:18;99153.89453;;;;
44734;BME280;30462;52.446;-1.930;2023-04-22T05:40:18;99153.07422;;;;
44734;BME280;30462;52.446;-1.930;2023-04-22T05:41:18;99156.17969;;;;
44734;BME280;30462;52.446;-1.930;2023-04-22T05:42:18;99152.36328;;;;
44734;BME280;30462;52.446;-1.930;2023-04-22T05:43:18;99151.35938;;;;
44734;BME280;30462;52.446;-1.930;2023-04-22T05:44:18;99154.32422;;;;
44734;BME280;30462;52.446;-1.930;2023-04-22T05:45:18;99154.16406;;;;
44734;BME280;30462;52.446;-1.930;2023-04-22T05:46:18;99147.21094;;;;